sensor_id;sensor_type;location;lat;lon;timestamp;P1;durP1;ratioP1;P2;durP2;ratioP2
60478;SDS011;46321;48.398;11.754;2022-08-19T00:01:21;9.73;;;6.85;;
60478;SDS011;46321;48.398;11.754;2022-08-19T00:03:46;10.73;;;7.43;;
60478;SDS011;46321;48.398;11.754;2022-08-19T00:06:13;10.27;;;7.03;;
60478;SDS011;46321;48.398;11.754;2022-08-19T00:08:39;11.93;;;7.22;;
60478;SDS011;46321;48.398;11.754;2022-08-19T00:11:04;10.73;;;6.85;;
60478;SDS011;46321;48.398;11.754;2022-08-19T00:13:30;9.80;;;6.63;;
60478;SDS011;46321;48.398;11.754;2022-08-19T00:15:55;9.23;;;6.33;;
60478;SDS011;46321;48.398;11.754;2022-08-19T00:18:23;8.23;;;6.20;;
60478;SDS011;46321;48.398;11.754;2022-08-19T00:20:48;9.15;;;6.38;;
60478;SDS011;46321;48.398;11.754;2022-08-19T00:23:14;8.03;;;5.50;;
60478;SDS011;46321;48.398;11.754;2022-08-19T00:25:39;8.18;;;5.07;;
60478;SDS011;46321;48.398;11.754;2022-08-19T00:28:05;6.57;;;4.55;;
60478;SDS011;46321;48.398;11.754;2022-08-19T00:30:31;8.02;;;5.07;;
60478;SDS011;46321;48.398;11.754;2022-08-19T00:32:56;9.18;;;5.75;;
60478;SDS011;46321;48.398;11.754;2022-08-19T00:35:23;9.35;;;5.63;;
60478;SDS011;46321;48.398;11.754;2022-08-19T00:37:49;11.30;;;5.40;;
60478;SDS011;46321;48.398;11.754;2022-08-19T00:40:15;7.25;;;4.93;;
60478;SDS011;46321;48.398;11.754;2022-08-19T00:42:41;8.40;;;4.40;;
60478;SDS011;46321;48.398;11.754;2022-08-19T00:45:13;7.18;;;4.97;;
60478;SDS011;46321;48.398;11.754;2022-08-19T00:47:42;6.57;;;4.97;;
60478;SDS011;46321;48.398;11.754;2022-08-19T00:50:08;5.53;;;4.32;;
60478;SDS011;46321;48.398;11.754;2022-08-19T00:52:37;6.90;;;4.70;;
60478;SDS011;46321;48.398;11.754;2022-08-19T00:55:09;7.15;;;4.78;;
60478;SDS011;46321;48.398;11.754;2022-08-19T00:57:38;8.40;;;4.80;;
60478;SDS011;46321;48.398;11.754;2022-08-19T01:00:06;7.15;;;4.78;;
60478;SDS011;46321;48.398;11.754;2022-08-19T01:02:36;7.30;;;5.20;;
60478;SDS011;46321;48.398;11.754;2022-08-19T01:05:03;7.60;;;5.47;;
60478;SDS011;46321;48.398;11.754;2022-08-19T01:07:31;6.85;;;4.82;;
60478;SDS011;46321;48.398;11.754;2022-08-19T01:09:56;7.03;;;5.10;;
60478;SDS011;46321;48.398;11.754;2022-08-19T01:12:21;6.68;;;5.22;;
60478;SDS011;46321;48.398;11.754;2022-08-19T01:14:47;7.10;;;5.20;;
60478;SDS011;46321;48.398;11.754;2022-08-19T01:17:14;7.65;;;5.30;;
60478;SDS011;46321;48.398;11.754;2022-08-19T01:19:41;9.15;;;5.57;;
60478;SDS011;46321;48.398;11.754;2022-08-19T01:22:12;7.35;;;5.40;;
60478;SDS011;46321;48.398;11.754;2022-08-19T01:24:44;6.97;;;4.90;;
60478;SDS011;46321;48.398;11.754;2022-08-19T01:27:10;7.10;;;5.15;;
60478;SDS011;46321;48.398;11.754;2022-08-19T01:29:37;7.95;;;5.38;;
60478;SDS011;46321;48.398;11.754;2022-08-19T01:32:04;7.18;;;5.22;;
60478;SDS011;46321;48.398;11.754;2022-08-19T01:34:30;7.50;;;5.20;;
60478;SDS011;46321;48.398;11.754;2022-08-19T01:36:56;9.55;;;5.80;;
60478;SDS011;46321;48.398;11.754;2022-08-19T01:39:22;7.03;;;5.17;;
60478;SDS011;46321;48.398;11.754;2022-08-19T01:41:49;8.05;;;5.10;;
60478;SDS011;46321;48.398;11.754;2022-08-19T01:44:15;8.82;;;5.45;;
60478;SDS011;46321;48.398;11.754;2022-08-19T01:46:46;7.50;;;5.18;;
60478;SDS011;46321;48.398;11.754;2022-08-19T01:49:13;7.43;;;5.07;;
60478;SDS011;46321;48.398;11.754;2022-08-19T01:51:39;7.65;;;5.10;;
60478;SDS011;46321;48.398;11.754;2022-08-19T01:54:04;8.48;;;5.82;;
60478;SDS011;46321;48.398;11.754;2022-08-19T01:56:30;7.20;;;5.07;;
60478;SDS011;46321;48.398;11.754;2022-08-19T01:58:57;8.30;;;5.33;;
60478;SDS011;46321;48.398;11.754;2022-08-19T02:01:26;8.85;;;6.13;;
60478;SDS011;46321;48.398;11.754;2022-08-19T02:03:51;8.52;;;5.25;;
60478;SDS011;46321;48.398;11.754;2022-08-19T02:06:18;7.75;;;5.18;;
60478;SDS011;46321;48.398;11.754;2022-08-19T02:08:44;7.60;;;5.45;;
60478;SDS011;46321;48.398;11.754;2022-08-19T02:11:17;7.10;;;5.07;;
60478;SDS011;46321;48.398;11.754;2022-08-19T02:13:44;6.53;;;4.68;;
60478;SDS011;46321;48.398;11.754;2022-08-19T02:16:10;6.93;;;5.30;;
60478;SDS011;46321;48.398;11.754;2022-08-19T02:18:35;8.50;;;4.85;;
60478;SDS011;46321;48.398;11.754;2022-08-19T02:21:00;7.77;;;5.00;;
60478;SDS011;46321;48.398;11.754;2022-08-19T02:23:26;7.03;;;5.00;;
60478;SDS011;46321;48.398;11.754;2022-08-19T02:25:52;7.32;;;5.20;;
60478;SDS011;46321;48.398;11.754;2022-08-19T02:28:17;7.45;;;5.05;;
60478;SDS011;46321;48.398;11.754;2022-08-19T02:30:42;7.40;;;5.38;;
60478;SDS011;46321;48.398;11.754;2022-08-19T02:33:08;9.20;;;5.65;;
60478;SDS011;46321;48.398;11.754;2022-08-19T02:35:33;6.53;;;4.75;;
60478;SDS011;46321;48.398;11.754;2022-08-19T02:37:58;7.55;;;5.25;;
60478;SDS011;46321;48.398;11.754;2022-08-19T02:40:48;8.32;;;5.05;;
60478;SDS011;46321;48.398;11.754;2022-08-19T02:43:16;7.30;;;5.35;;
60478;SDS011;46321;48.398;11.754;2022-08-19T02:45:42;6.07;;;4.53;;
60478;SDS011;46321;48.398;11.754;2022-08-19T02:48:07;5.17;;;3.80;;
60478;SDS011;46321;48.398;11.754;2022-08-19T02:50:38;5.97;;;4.07;;
60478;SDS011;46321;48.398;11.754;2022-08-19T02:53:04;7.90;;;4.43;;
60478;SDS011;46321;48.398;11.754;2022-08-19T02:55:32;6.07;;;4.15;;
60478;SDS011;46321;48.398;11.754;2022-08-19T02:57:57;5.78;;;3.95;;
60478;SDS011;46321;48.398;11.754;2022-08-19T03:00:22;4.50;;;3.40;;
60478;SDS011;46321;48.398;11.754;2022-08-19T03:02:49;4.15;;;3.20;;
60478;SDS011;46321;48.398;11.754;2022-08-19T03:05:14;4.18;;;3.20;;
60478;SDS011;46321;48.398;11.754;2022-08-19T03:07:40;3.80;;;2.90;;
60478;SDS011;46321;48.398;11.754;2022-08-19T03:10:06;4.20;;;2.85;;
60478;SDS011;46321;48.398;11.754;2022-08-19T03:12:34;6.53;;;3.10;;
60478;SDS011;46321;48.398;11.754;2022-08-19T03:15:01;4.05;;;2.63;;
60478;SDS011;46321;48.398;11.754;2022-08-19T03:17:26;4.22;;;2.75;;
60478;SDS011;46321;48.398;11.754;2022-08-19T03:19:52;4.17;;;2.67;;
60478;SDS011;46321;48.398;11.754;2022-08-19T03:22:17;4.15;;;3.05;;
60478;SDS011;46321;48.398;11.754;2022-08-19T03:24:42;3.57;;;2.90;;
60478;SDS011;46321;48.398;11.754;2022-08-19T03:27:08;4.82;;;3.13;;
60478;SDS011;46321;48.398;11.754;2022-08-19T03:29:34;5.50;;;3.20;;
60478;SDS011;46321;48.398;11.754;2022-08-19T03:32:03;3.88;;;3.05;;
60478;SDS011;46321;48.398;11.754;2022-08-19T03:34:30;3.80;;;2.80;;
60478;SDS011;46321;48.398;11.754;2022-08-19T03:37:01;5.85;;;2.83;;
60478;SDS011;46321;48.398;11.754;2022-08-19T03:39:29;4.05;;;2.90;;
60478;SDS011;46321;48.398;11.754;2022-08-19T03:41:55;5.32;;;2.88;;
60478;SDS011;46321;48.398;11.754;2022-08-19T03:44:27;4.77;;;3.40;;
60478;SDS011;46321;48.398;11.754;2022-08-19T03:46:55;4.93;;;2.92;;
60478;SDS011;46321;48.398;11.754;2022-08-19T03:49:22;4.47;;;2.97;;
60478;SDS011;46321;48.398;11.754;2022-08-19T03:51:49;5.30;;;3.25;;
60478;SDS011;46321;48.398;11.754;2022-08-19T03:54:16;3.78;;;3.17;;
60478;SDS011;46321;48.398;11.754;2022-08-19T03:56:44;5.20;;;3.65;;
60478;SDS011;46321;48.398;11.754;2022-08-19T03:59:12;5.18;;;3.60;;
60478;SDS011;46321;48.398;11.754;2022-08-19T04:01:40;4.22;;;3.17;;
60478;SDS011;46321;48.398;11.754;2022-08-19T04:04:05;5.07;;;3.90;;
60478;SDS011;46321;48.398;11.754;2022-08-19T04:06:32;5.05;;;3.35;;
60478;SDS011;46321;48.398;11.754;2022-08-19T04:09:00;5.15;;;3.92;;
60478;SDS011;46321;48.398;11.754;2022-08-19T04:11:29;6.40;;;3.75;;
60478;SDS011;46321;48.398;11.754;2022-08-19T04:14:00;5.75;;;4.10;;
60478;SDS011;46321;48.398;11.754;2022-08-19T04:16:26;5.95;;;4.35;;
60478;SDS011;46321;48.398;11.754;2022-08-19T04:18:56;7.00;;;4.55;;
60478;SDS011;46321;48.398;11.754;2022-08-19T04:21:25;6.60;;;4.53;;
60478;SDS011;46321;48.398;11.754;2022-08-19T04:23:52;5.95;;;4.30;;
60478;SDS011;46321;48.398;11.754;2022-08-19T04:26:21;7.40;;;4.75;;
60478;SDS011;46321;48.398;11.754;2022-08-19T04:28:49;6.43;;;4.40;;
60478;SDS011;46321;48.398;11.754;2022-08-19T04:31:17;6.13;;;4.40;;
60478;SDS011;46321;48.398;11.754;2022-08-19T04:33:44;7.03;;;4.72;;
60478;SDS011;46321;48.398;11.754;2022-08-19T04:36:20;5.63;;;3.97;;
60478;SDS011;46321;48.398;11.754;2022-08-19T04:38:48;6.20;;;4.13;;
60478;SDS011;46321;48.398;11.754;2022-08-19T04:41:14;8.32;;;4.80;;
60478;SDS011;46321;48.398;11.754;2022-08-19T04:43:59;9.52;;;5.43;;
60478;SDS011;46321;48.398;11.754;2022-08-19T04:46:24;6.57;;;4.85;;
60478;SDS011;46321;48.398;11.754;2022-08-19T04:48:50;6.20;;;4.55;;
60478;SDS011;46321;48.398;11.754;2022-08-19T04:51:15;6.63;;;4.78;;
60478;SDS011;46321;48.398;11.754;2022-08-19T04:53:41;9.55;;;5.45;;
60478;SDS011;46321;48.398;11.754;2022-08-19T04:56:10;7.80;;;5.43;;
60478;SDS011;46321;48.398;11.754;2022-08-19T04:58:40;8.52;;;5.25;;
60478;SDS011;46321;48.398;11.754;2022-08-19T05:01:07;7.20;;;5.25;;
60478;SDS011;46321;48.398;11.754;2022-08-19T05:03:35;8.00;;;5.32;;
60478;SDS011;46321;48.398;11.754;2022-08-19T05:06:04;8.02;;;5.10;;
60478;SDS011;46321;48.398;11.754;2022-08-19T05:08:32;7.82;;;5.55;;
60478;SDS011;46321;48.398;11.754;2022-08-19T05:10:59;7.80;;;5.75;;
60478;SDS011;46321;48.398;11.754;2022-08-19T05:13:25;7.70;;;5.65;;
60478;SDS011;46321;48.398;11.754;2022-08-19T05:15:57;7.85;;;5.55;;
60478;SDS011;46321;48.398;11.754;2022-08-19T05:18:23;7.60;;;5.07;;
60478;SDS011;46321;48.398;11.754;2022-08-19T05:21:12;8.45;;;5.85;;
60478;SDS011;46321;48.398;11.754;2022-08-19T05:23:58;7.47;;;5.40;;
60478;SDS011;46321;48.398;11.754;2022-08-19T05:26:24;8.35;;;5.60;;
60478;SDS011;46321;48.398;11.754;2022-08-19T05:28:52;7.72;;;5.38;;
60478;SDS011;46321;48.398;11.754;2022-08-19T05:31:18;8.93;;;5.88;;
60478;SDS011;46321;48.398;11.754;2022-08-19T05:33:44;8.32;;;6.13;;
60478;SDS011;46321;48.398;11.754;2022-08-19T05:36:09;11.25;;;6.40;;
60478;SDS011;46321;48.398;11.754;2022-08-19T05:38:34;9.98;;;6.43;;
60478;SDS011;46321;48.398;11.754;2022-08-19T05:41:01;8.68;;;6.00;;
60478;SDS011;46321;48.398;11.754;2022-08-19T05:43:31;9.02;;;6.25;;
60478;SDS011;46321;48.398;11.754;2022-08-19T05:45:56;8.47;;;5.90;;
60478;SDS011;46321;48.398;11.754;2022-08-19T05:48:21;9.75;;;6.50;;
60478;SDS011;46321;48.398;11.754;2022-08-19T05:50:47;11.50;;;6.77;;
60478;SDS011;46321;48.398;11.754;2022-08-19T05:53:15;12.50;;;7.60;;
60478;SDS011;46321;48.398;11.754;2022-08-19T05:55:41;13.15;;;7.80;;
60478;SDS011;46321;48.398;11.754;2022-08-19T05:58:07;15.40;;;8.80;;
60478;SDS011;46321;48.398;11.754;2022-08-19T06:00:32;12.30;;;7.90;;
60478;SDS011;46321;48.398;11.754;2022-08-19T06:02:58;11.57;;;7.20;;
60478;SDS011;46321;48.398;11.754;2022-08-19T06:05:27;9.48;;;6.53;;
60478;SDS011;46321;48.398;11.754;2022-08-19T06:07:54;9.80;;;7.38;;
60478;SDS011;46321;48.398;11.754;2022-08-19T06:10:19;11.32;;;7.45;;
60478;SDS011;46321;48.398;11.754;2022-08-19T06:12:46;11.10;;;7.63;;
60478;SDS011;46321;48.398;11.754;2022-08-19T06:15:12;11.85;;;7.55;;
60478;SDS011;46321;48.398;11.754;2022-08-19T06:17:39;14.27;;;8.00;;
60478;SDS011;46321;48.398;11.754;2022-08-19T06:20:07;14.27;;;8.23;;
60478;SDS011;46321;48.398;11.754;2022-08-19T06:22:40;15.23;;;8.90;;
60478;SDS011;46321;48.398;11.754;2022-08-19T06:25:07;13.60;;;8.35;;
60478;SDS011;46321;48.398;11.754;2022-08-19T06:27:34;12.57;;;8.23;;
60478;SDS011;46321;48.398;11.754;2022-08-19T06:30:00;13.07;;;8.68;;
60478;SDS011;46321;48.398;11.754;2022-08-19T06:32:25;19.00;;;9.43;;
60478;SDS011;46321;48.398;11.754;2022-08-19T06:34:51;12.75;;;8.35;;
60478;SDS011;46321;48.398;11.754;2022-08-19T06:37:16;13.27;;;8.07;;
60478;SDS011;46321;48.398;11.754;2022-08-19T06:39:42;13.10;;;8.10;;
60478;SDS011;46321;48.398;11.754;2022-08-19T06:42:09;14.65;;;8.63;;
60478;SDS011;46321;48.398;11.754;2022-08-19T06:44:36;15.00;;;8.13;;
60478;SDS011;46321;48.398;11.754;2022-08-19T06:47:05;13.85;;;7.78;;
60478;SDS011;46321;48.398;11.754;2022-08-19T06:49:33;12.18;;;8.00;;
60478;SDS011;46321;48.398;11.754;2022-08-19T06:51:59;11.50;;;8.13;;
60478;SDS011;46321;48.398;11.754;2022-08-19T06:54:25;17.48;;;9.25;;
60478;SDS011;46321;48.398;11.754;2022-08-19T06:56:53;16.88;;;9.60;;
60478;SDS011;46321;48.398;11.754;2022-08-19T06:59:20;15.50;;;9.30;;
60478;SDS011;46321;48.398;11.754;2022-08-19T07:01:51;15.65;;;9.77;;
60478;SDS011;46321;48.398;11.754;2022-08-19T07:04:19;14.55;;;9.75;;
60478;SDS011;46321;48.398;11.754;2022-08-19T07:06:47;19.30;;;10.55;;
60478;SDS011;46321;48.398;11.754;2022-08-19T07:09:15;17.05;;;9.57;;
60478;SDS011;46321;48.398;11.754;2022-08-19T07:11:46;16.17;;;9.98;;
60478;SDS011;46321;48.398;11.754;2022-08-19T07:14:14;14.38;;;9.65;;
60478;SDS011;46321;48.398;11.754;2022-08-19T07:16:43;17.42;;;10.43;;
60478;SDS011;46321;48.398;11.754;2022-08-19T07:19:10;23.95;;;13.68;;
60478;SDS011;46321;48.398;11.754;2022-08-19T07:21:35;18.20;;;11.18;;
60478;SDS011;46321;48.398;11.754;2022-08-19T07:24:00;24.20;;;13.95;;
60478;SDS011;46321;48.398;11.754;2022-08-19T07:26:37;20.77;;;12.87;;
60478;SDS011;46321;48.398;11.754;2022-08-19T07:29:05;16.02;;;10.13;;
60478;SDS011;46321;48.398;11.754;2022-08-19T07:31:31;17.13;;;10.52;;
60478;SDS011;46321;48.398;11.754;2022-08-19T07:34:01;15.57;;;10.65;;
60478;SDS011;46321;48.398;11.754;2022-08-19T07:36:35;18.30;;;10.70;;
60478;SDS011;46321;48.398;11.754;2022-08-19T07:39:04;15.73;;;10.27;;
60478;SDS011;46321;48.398;11.754;2022-08-19T07:44:02;21.38;;;11.43;;
60478;SDS011;46321;48.398;11.754;2022-08-19T07:46:30;17.42;;;10.45;;
60478;SDS011;46321;48.398;11.754;2022-08-19T07:48:56;16.85;;;10.57;;
60478;SDS011;46321;48.398;11.754;2022-08-19T07:51:23;20.83;;;12.05;;
60478;SDS011;46321;48.398;11.754;2022-08-19T07:53:48;20.98;;;12.57;;
60478;SDS011;46321;48.398;11.754;2022-08-19T07:56:15;21.15;;;12.27;;
60478;SDS011;46321;48.398;11.754;2022-08-19T07:58:43;22.98;;;11.95;;
60478;SDS011;46321;48.398;11.754;2022-08-19T08:01:12;18.52;;;11.60;;
60478;SDS011;46321;48.398;11.754;2022-08-19T08:03:39;17.63;;;11.52;;
60478;SDS011;46321;48.398;11.754;2022-08-19T08:06:23;22.15;;;12.05;;
60478;SDS011;46321;48.398;11.754;2022-08-19T08:09:08;21.95;;;13.45;;
60478;SDS011;46321;48.398;11.754;2022-08-19T08:11:43;22.13;;;12.32;;
60478;SDS011;46321;48.398;11.754;2022-08-19T08:14:45;22.67;;;13.15;;
60478;SDS011;46321;48.398;11.754;2022-08-19T08:17:13;22.80;;;13.05;;
60478;SDS011;46321;48.398;11.754;2022-08-19T08:19:40;22.52;;;14.18;;
60478;SDS011;46321;48.398;11.754;2022-08-19T08:22:09;23.75;;;13.55;;
60478;SDS011;46321;48.398;11.754;2022-08-19T08:25:15;22.42;;;14.00;;
60478;SDS011;46321;48.398;11.754;2022-08-19T08:27:44;25.67;;;13.43;;
60478;SDS011;46321;48.398;11.754;2022-08-19T08:30:15;21.85;;;12.18;;
60478;SDS011;46321;48.398;11.754;2022-08-19T08:32:42;22.55;;;12.88;;
60478;SDS011;46321;48.398;11.754;2022-08-19T08:35:09;20.58;;;12.52;;
60478;SDS011;46321;48.398;11.754;2022-08-19T08:37:38;20.55;;;12.45;;
60478;SDS011;46321;48.398;11.754;2022-08-19T08:40:05;19.92;;;12.65;;
60478;SDS011;46321;48.398;11.754;2022-08-19T08:42:39;24.55;;;13.63;;
60478;SDS011;46321;48.398;11.754;2022-08-19T08:45:14;19.52;;;11.43;;
60478;SDS011;46321;48.398;11.754;2022-08-19T08:47:43;19.88;;;11.93;;
60478;SDS011;46321;48.398;11.754;2022-08-19T08:50:16;24.58;;;13.63;;
60478;SDS011;46321;48.398;11.754;2022-08-19T08:52:48;20.95;;;11.10;;
60478;SDS011;46321;48.398;11.754;2022-08-19T08:55:18;18.98;;;11.60;;
60478;SDS011;46321;48.398;11.754;2022-08-19T09:00:14;21.97;;;13.23;;
60478;SDS011;46321;48.398;11.754;2022-08-19T09:02:43;21.90;;;13.40;;
60478;SDS011;46321;48.398;11.754;2022-08-19T09:05:09;21.52;;;13.57;;
60478;SDS011;46321;48.398;11.754;2022-08-19T09:07:49;22.42;;;13.38;;
60478;SDS011;46321;48.398;11.754;2022-08-19T09:16:07;28.27;;;16.10;;
60478;SDS011;46321;48.398;11.754;2022-08-19T09:18:38;25.80;;;14.27;;
60478;SDS011;46321;48.398;11.754;2022-08-19T09:21:08;27.67;;;15.10;;
60478;SDS011;46321;48.398;11.754;2022-08-19T09:23:34;29.17;;;15.13;;
60478;SDS011;46321;48.398;11.754;2022-08-19T09:26:00;26.83;;;14.82;;
60478;SDS011;46321;48.398;11.754;2022-08-19T09:28:25;27.42;;;14.77;;
60478;SDS011;46321;48.398;11.754;2022-08-19T09:30:50;28.98;;;16.80;;
60478;SDS011;46321;48.398;11.754;2022-08-19T09:33:16;27.50;;;14.85;;
60478;SDS011;46321;48.398;11.754;2022-08-19T09:35:42;27.63;;;15.63;;
60478;SDS011;46321;48.398;11.754;2022-08-19T09:38:07;28.25;;;16.15;;
60478;SDS011;46321;48.398;11.754;2022-08-19T09:40:33;28.30;;;15.82;;
60478;SDS011;46321;48.398;11.754;2022-08-19T09:42:58;28.20;;;16.52;;
60478;SDS011;46321;48.398;11.754;2022-08-19T09:45:27;29.08;;;16.27;;
60478;SDS011;46321;48.398;11.754;2022-08-19T09:47:53;28.95;;;16.05;;
60478;SDS011;46321;48.398;11.754;2022-08-19T09:50:19;29.67;;;16.50;;
60478;SDS011;46321;48.398;11.754;2022-08-19T09:52:45;28.20;;;16.13;;
60478;SDS011;46321;48.398;11.754;2022-08-19T09:55:11;29.90;;;16.10;;
60478;SDS011;46321;48.398;11.754;2022-08-19T09:57:36;27.95;;;16.65;;
60478;SDS011;46321;48.398;11.754;2022-08-19T10:00:04;32.90;;;17.85;;
60478;SDS011;46321;48.398;11.754;2022-08-19T10:02:33;27.83;;;15.77;;
60478;SDS011;46321;48.398;11.754;2022-08-19T10:04:58;26.90;;;15.63;;
60478;SDS011;46321;48.398;11.754;2022-08-19T10:07:42;24.70;;;14.68;;
60478;SDS011;46321;48.398;11.754;2022-08-19T10:10:07;28.57;;;16.10;;
60478;SDS011;46321;48.398;11.754;2022-08-19T10:12:34;26.55;;;15.82;;
60478;SDS011;46321;48.398;11.754;2022-08-19T10:15:00;22.50;;;13.85;;
60478;SDS011;46321;48.398;11.754;2022-08-19T10:17:26;22.85;;;13.63;;
60478;SDS011;46321;48.398;11.754;2022-08-19T10:19:52;22.75;;;13.10;;
60478;SDS011;46321;48.398;11.754;2022-08-19T10:22:18;21.70;;;13.23;;
60478;SDS011;46321;48.398;11.754;2022-08-19T10:24:44;24.77;;;12.90;;
60478;SDS011;46321;48.398;11.754;2022-08-19T10:27:10;18.60;;;11.40;;
60478;SDS011;46321;48.398;11.754;2022-08-19T10:29:37;20.67;;;11.23;;
60478;SDS011;46321;48.398;11.754;2022-08-19T10:32:04;17.00;;;11.32;;
60478;SDS011;46321;48.398;11.754;2022-08-19T10:34:32;16.48;;;10.38;;
60478;SDS011;46321;48.398;11.754;2022-08-19T10:36:58;16.20;;;10.15;;
60478;SDS011;46321;48.398;11.754;2022-08-19T10:39:25;13.48;;;9.38;;
60478;SDS011;46321;48.398;11.754;2022-08-19T10:41:53;13.77;;;9.48;;
60478;SDS011;46321;48.398;11.754;2022-08-19T10:44:18;12.00;;;8.25;;
60478;SDS011;46321;48.398;11.754;2022-08-19T10:46:44;11.27;;;8.00;;
60478;SDS011;46321;48.398;11.754;2022-08-19T10:49:11;10.73;;;7.47;;
60478;SDS011;46321;48.398;11.754;2022-08-19T10:51:37;8.10;;;6.45;;
60478;SDS011;46321;48.398;11.754;2022-08-19T10:54:22;9.27;;;6.88;;
60478;SDS011;46321;48.398;11.754;2022-08-19T10:56:48;8.88;;;5.82;;
60478;SDS011;46321;48.398;11.754;2022-08-19T10:59:16;5.70;;;4.82;;
60478;SDS011;46321;48.398;11.754;2022-08-19T11:01:46;7.28;;;5.18;;
60478;SDS011;46321;48.398;11.754;2022-08-19T11:04:12;5.18;;;4.53;;
60478;SDS011;46321;48.398;11.754;2022-08-19T11:06:39;5.72;;;5.07;;
60478;SDS011;46321;48.398;11.754;2022-08-19T11:09:06;6.85;;;5.18;;
60478;SDS011;46321;48.398;11.754;2022-08-19T11:11:33;10.05;;;7.10;;
60478;SDS011;46321;48.398;11.754;2022-08-19T11:14:04;10.25;;;7.38;;
60478;SDS011;46321;48.398;11.754;2022-08-19T11:16:29;13.80;;;8.40;;
60478;SDS011;46321;48.398;11.754;2022-08-19T11:18:57;9.60;;;7.47;;
60478;SDS011;46321;48.398;11.754;2022-08-19T11:21:28;11.38;;;8.52;;
60478;SDS011;46321;48.398;11.754;2022-08-19T11:23:57;11.73;;;8.20;;
60478;SDS011;46321;48.398;11.754;2022-08-19T11:26:26;11.98;;;8.32;;
60478;SDS011;46321;48.398;11.754;2022-08-19T11:28:52;13.32;;;9.18;;
60478;SDS011;46321;48.398;11.754;2022-08-19T11:31:20;12.13;;;8.80;;
60478;SDS011;46321;48.398;11.754;2022-08-19T11:33:47;12.20;;;8.18;;
60478;SDS011;46321;48.398;11.754;2022-08-19T11:36:16;13.15;;;9.60;;
60478;SDS011;46321;48.398;11.754;2022-08-19T11:38:41;13.32;;;9.50;;
60478;SDS011;46321;48.398;11.754;2022-08-19T11:41:07;14.30;;;9.65;;
60478;SDS011;46321;48.398;11.754;2022-08-19T11:43:33;14.00;;;9.75;;
60478;SDS011;46321;48.398;11.754;2022-08-19T11:45:59;13.90;;;9.75;;
60478;SDS011;46321;48.398;11.754;2022-08-19T11:48:32;15.38;;;9.45;;
60478;SDS011;46321;48.398;11.754;2022-08-19T11:50:57;16.00;;;11.00;;
60478;SDS011;46321;48.398;11.754;2022-08-19T11:53:23;14.60;;;11.10;;
60478;SDS011;46321;48.398;11.754;2022-08-19T11:55:49;15.32;;;10.02;;
60478;SDS011;46321;48.398;11.754;2022-08-19T11:58:16;15.75;;;10.90;;
60478;SDS011;46321;48.398;11.754;2022-08-19T12:00:42;17.45;;;10.80;;
60478;SDS011;46321;48.398;11.754;2022-08-19T12:03:10;13.05;;;8.93;;
60478;SDS011;46321;48.398;11.754;2022-08-19T12:05:37;16.90;;;10.65;;
60478;SDS011;46321;48.398;11.754;2022-08-19T12:08:03;14.85;;;10.23;;
60478;SDS011;46321;48.398;11.754;2022-08-19T12:10:29;13.10;;;9.57;;
60478;SDS011;46321;48.398;11.754;2022-08-19T12:12:54;11.63;;;8.73;;
60478;SDS011;46321;48.398;11.754;2022-08-19T12:15:19;12.48;;;8.88;;
60478;SDS011;46321;48.398;11.754;2022-08-19T12:17:45;11.38;;;7.63;;
60478;SDS011;46321;48.398;11.754;2022-08-19T12:20:11;9.93;;;6.83;;
60478;SDS011;46321;48.398;11.754;2022-08-19T12:22:38;9.27;;;6.10;;
60478;SDS011;46321;48.398;11.754;2022-08-19T12:25:06;6.80;;;5.15;;
60478;SDS011;46321;48.398;11.754;2022-08-19T12:27:33;7.72;;;5.70;;
60478;SDS011;46321;48.398;11.754;2022-08-19T12:30:00;6.97;;;5.30;;
60478;SDS011;46321;48.398;11.754;2022-08-19T12:32:26;8.27;;;5.57;;
60478;SDS011;46321;48.398;11.754;2022-08-19T12:34:52;8.43;;;6.20;;
60478;SDS011;46321;48.398;11.754;2022-08-19T12:37:17;10.88;;;8.10;;
60478;SDS011;46321;48.398;11.754;2022-08-19T12:39:43;11.17;;;7.37;;
60478;SDS011;46321;48.398;11.754;2022-08-19T12:42:12;7.32;;;5.47;;
60478;SDS011;46321;48.398;11.754;2022-08-19T12:44:39;6.43;;;4.78;;
60478;SDS011;46321;48.398;11.754;2022-08-19T12:47:05;5.45;;;4.03;;
60478;SDS011;46321;48.398;11.754;2022-08-19T12:49:32;5.07;;;3.47;;
60478;SDS011;46321;48.398;11.754;2022-08-19T12:52:01;3.08;;;2.65;;
60478;SDS011;46321;48.398;11.754;2022-08-19T12:54:28;3.08;;;2.33;;
60478;SDS011;46321;48.398;11.754;2022-08-19T12:56:54;3.22;;;2.58;;
60478;SDS011;46321;48.398;11.754;2022-08-19T12:59:19;2.83;;;2.47;;
60478;SDS011;46321;48.398;11.754;2022-08-19T13:01:44;3.38;;;2.67;;
60478;SDS011;46321;48.398;11.754;2022-08-19T13:04:10;3.75;;;3.25;;
60478;SDS011;46321;48.398;11.754;2022-08-19T13:06:36;7.60;;;5.22;;
60478;SDS011;46321;48.398;11.754;2022-08-19T13:09:02;2.63;;;2.00;;
60478;SDS011;46321;48.398;11.754;2022-08-19T13:11:28;2.15;;;1.65;;
60478;SDS011;46321;48.398;11.754;2022-08-19T13:13:57;1.83;;;1.40;;
60478;SDS011;46321;48.398;11.754;2022-08-19T13:16:23;1.77;;;1.50;;
60478;SDS011;46321;48.398;11.754;2022-08-19T13:18:48;1.35;;;1.02;;
60478;SDS011;46321;48.398;11.754;2022-08-19T13:21:16;1.30;;;1.10;;
60478;SDS011;46321;48.398;11.754;2022-08-19T13:23:42;1.10;;;0.90;;
60478;SDS011;46321;48.398;11.754;2022-08-19T13:26:09;0.90;;;0.70;;
60478;SDS011;46321;48.398;11.754;2022-08-19T13:28:35;1.10;;;0.90;;
60478;SDS011;46321;48.398;11.754;2022-08-19T13:31:20;1.50;;;1.23;;
60478;SDS011;46321;48.398;11.754;2022-08-19T13:34:05;1.20;;;0.95;;
60478;SDS011;46321;48.398;11.754;2022-08-19T13:36:31;1.20;;;0.98;;
60478;SDS011;46321;48.398;11.754;2022-08-19T13:39:00;1.30;;;1.10;;
60478;SDS011;46321;48.398;11.754;2022-08-19T13:41:26;1.70;;;1.40;;
60478;SDS011;46321;48.398;11.754;2022-08-19T13:43:52;2.15;;;1.42;;
60478;SDS011;46321;48.398;11.754;2022-08-19T13:46:17;1.85;;;1.55;;
60478;SDS011;46321;48.398;11.754;2022-08-19T13:48:44;2.00;;;1.70;;
60478;SDS011;46321;48.398;11.754;2022-08-19T13:51:10;1.85;;;1.40;;
60478;SDS011;46321;48.398;11.754;2022-08-19T13:53:36;1.90;;;1.15;;
60478;SDS011;46321;48.398;11.754;2022-08-19T13:56:06;2.47;;;1.17;;
60478;SDS011;46321;48.398;11.754;2022-08-19T13:58:33;1.40;;;1.20;;
60478;SDS011;46321;48.398;11.754;2022-08-19T14:00:58;2.67;;;1.20;;
60478;SDS011;46321;48.398;11.754;2022-08-19T14:03:25;3.53;;;1.15;;
60478;SDS011;46321;48.398;11.754;2022-08-19T14:05:50;2.38;;;1.00;;
60478;SDS011;46321;48.398;11.754;2022-08-19T14:08:16;1.00;;;0.82;;
60478;SDS011;46321;48.398;11.754;2022-08-19T14:10:42;3.65;;;1.02;;
60478;SDS011;46321;48.398;11.754;2022-08-19T14:13:09;1.02;;;0.93;;
60478;SDS011;46321;48.398;11.754;2022-08-19T14:15:35;1.00;;;0.90;;
60478;SDS011;46321;48.398;11.754;2022-08-19T14:18:02;2.00;;;0.85;;
60478;SDS011;46321;48.398;11.754;2022-08-19T14:20:28;1.38;;;0.80;;
60478;SDS011;46321;48.398;11.754;2022-08-19T14:22:53;1.33;;;0.90;;
60478;SDS011;46321;48.398;11.754;2022-08-19T14:25:21;2.40;;;0.80;;
60478;SDS011;46321;48.398;11.754;2022-08-19T14:27:49;1.23;;;0.90;;
60478;SDS011;46321;48.398;11.754;2022-08-19T14:30:15;1.25;;;0.82;;
60478;SDS011;46321;48.398;11.754;2022-08-19T14:32:43;1.30;;;1.10;;
60478;SDS011;46321;48.398;11.754;2022-08-19T14:35:08;1.50;;;1.35;;
60478;SDS011;46321;48.398;11.754;2022-08-19T14:37:37;1.95;;;1.50;;
60478;SDS011;46321;48.398;11.754;2022-08-19T14:40:03;1.90;;;1.50;;